createdAt,value
2018-04-27T00:02:26.273Z,66.37
2018-04-27T00:04:54.574Z,66.50
2018-04-27T00:07:22.860Z,66.42
2018-04-27T00:09:51.136Z,66.41
2018-04-27T00:12:19.485Z,66.64
2018-04-27T00:14:47.775Z,67.82
2018-04-27T00:17:16.842Z,67.61
2018-04-27T00:19:45.146Z,66.73
2018-04-27T00:22:13.432Z,66.36
2018-04-27T00:24:41.730Z,66.93
2018-04-27T00:27:10.881Z,65.85
2018-04-27T00:29:39.186Z,65.48
2018-04-27T00:32:07.468Z,65.46
2018-04-27T00:34:35.750Z,65.19
2018-04-27T00:37:04.027Z,64.54
2018-04-27T00:39:32.315Z,63.79
2018-04-27T00:42:01.390Z,64.22
2018-04-27T00:44:29.709Z,63.95
2018-04-27T00:46:58.780Z,63.24
2018-04-27T00:49:27.074Z,63.12
2018-04-27T00:51:55.605Z,63.05
2018-04-27T00:54:24.688Z,65.25
2018-04-27T00:56:52.980Z,65.71
2018-04-27T00:59:21.269Z,67.27
2018-04-27T01:01:49.598Z,66.58
2018-04-27T01:04:17.991Z,67.34
2018-04-27T01:06:46.277Z,67.10
2018-04-27T01:09:14.577Z,67.75
2018-04-27T01:11:42.866Z,67.45
2018-04-27T01:14:11.147Z,68.18
2018-04-27T01:16:39.472Z,66.91
2018-04-27T01:19:07.766Z,66.77
2018-04-27T01:21:36.104Z,67.33
2018-04-27T01:24:04.332Z,68.13
2018-04-27T01:26:32.726Z,68.12
2018-04-27T01:29:01.005Z,68.33
2018-04-27T01:31:29.296Z,67.35
2018-04-27T01:33:57.593Z,67.93
2018-04-27T01:36:25.871Z,68.28
2018-04-27T01:38:54.151Z,68.40
2018-04-27T01:41:22.436Z,68.77
2018-04-27T01:43:51.469Z,68.96
2018-04-27T01:46:19.727Z,70.14
2018-04-27T01:48:48.795Z,70.54
2018-04-27T01:51:17.091Z,70.85
2018-04-27T01:53:45.370Z,71.33
2018-04-27T01:56:13.663Z,70.56
2018-04-27T01:58:41.936Z,70.94
2018-04-27T02:01:10.218Z,70.76
2018-04-27T02:03:38.593Z,71.27
2018-04-27T02:06:06.868Z,71.37
2018-04-27T02:08:35.908Z,71.29
2018-04-27T02:11:04.291Z,71.70
2018-04-27T02:13:32.531Z,71.86
2018-04-27T02:16:00.807Z,71.95
2018-04-27T02:18:29.099Z,72.04
2018-04-27T02:20:57.397Z,71.87
2018-04-27T02:23:25.680Z,72.02
2018-04-27T02:25:53.991Z,72.04
2018-04-27T02:28:23.764Z,71.49
2018-04-27T02:30:52.118Z,71.42
2018-04-27T02:33:20.383Z,71.82
2018-04-27T02:35:48.703Z,71.09
2018-04-27T02:38:17.721Z,70.36
2018-04-27T02:40:46.020Z,70.08
2018-04-27T02:43:14.277Z,70.44
2018-04-27T02:45:42.520Z,70.06
2018-04-27T02:48:10.792Z,69.87
2018-04-27T02:50:39.037Z,70.02
2018-04-27T02:53:08.080Z,69.78
2018-04-27T02:55:36.353Z,70.93
2018-04-27T02:58:05.389Z,69.98
2018-04-27T03:00:33.654Z,69.87
2018-04-27T03:03:02.678Z,69.77
2018-04-27T03:05:30.933Z,69.34
2018-04-27T03:08:00.052Z,69.47
2018-04-27T03:10:28.327Z,69.77
2018-04-27T03:12:56.634Z,69.73
2018-04-27T03:15:24.895Z,69.52
2018-04-27T03:17:53.154Z,69.30
2018-04-27T03:20:21.400Z,69.48
2018-04-27T03:22:50.448Z,70.11
2018-04-27T03:25:18.699Z,69.89
2018-04-27T03:27:47.717Z,69.73
2018-04-27T03:30:16.737Z,70.01
2018-04-27T03:32:44.991Z,70.09
2018-04-27T03:35:13.241Z,70.67
2018-04-27T03:37:41.487Z,70.37
2018-04-27T03:40:10.515Z,70.83
2018-04-27T03:42:38.768Z,70.64
2018-04-27T03:45:07.027Z,70.88
2018-04-27T03:47:35.265Z,71.03
2018-04-27T03:50:04.284Z,71.22
2018-04-27T03:52:32.576Z,71.12
2018-04-27T03:55:01.615Z,71.19
2018-04-27T03:57:29.892Z,71.24
2018-04-27T04:00:15.577Z,71.29
2018-04-27T04:03:01.233Z,71.18
2018-04-27T04:05:33.155Z,71.85
2018-04-27T04:08:01.426Z,71.46
2018-04-27T04:10:30.479Z,71.11
2018-04-27T04:12:58.767Z,71.14
2018-04-27T04:15:27.042Z,71.45
2018-04-27T04:17:55.294Z,71.04
2018-04-27T04:20:24.322Z,71.36
2018-04-27T04:22:52.564Z,71.41
2018-04-27T04:25:20.815Z,71.27
2018-04-27T04:27:49.067Z,71.32
2018-04-27T04:30:18.072Z,71.13
2018-04-27T04:32:47.091Z,70.98
2018-04-27T04:35:16.120Z,71.00
2018-04-27T04:37:44.379Z,70.90
2018-04-27T04:40:13.405Z,70.91
2018-04-27T04:42:42.423Z,70.92
2018-04-27T04:45:10.788Z,70.99
2018-04-27T04:47:38.952Z,70.36
2018-04-27T04:50:07.288Z,70.04
2018-04-27T04:52:35.552Z,69.72
2018-04-27T04:55:03.792Z,69.75
2018-04-27T04:57:32.067Z,69.18
2018-04-27T05:00:00.323Z,69.64
2018-04-27T05:02:29.440Z,68.07
2018-04-27T05:04:57.733Z,68.55
2018-04-27T05:07:26.760Z,68.11
2018-04-27T05:09:55.017Z,68.04
2018-04-27T05:12:23.293Z,67.88
2018-04-27T05:14:51.633Z,67.79
2018-04-27T05:17:19.878Z,67.58
2018-04-27T05:19:55.208Z,67.04
2018-04-27T05:22:23.447Z,67.21
2018-04-27T05:24:51.762Z,67.04
2018-04-27T05:27:20.024Z,66.68
2018-04-27T05:29:49.149Z,66.45
2018-04-27T05:32:17.292Z,64.80
2018-04-27T05:34:45.580Z,65.05
2018-04-27T05:37:14.736Z,64.70
2018-04-27T05:39:49.590Z,64.25
2018-04-27T05:42:18.716Z,63.09
2018-04-27T05:44:46.964Z,62.65
2018-04-27T05:47:16.008Z,61.88
2018-04-27T05:49:44.298Z,61.67
2018-04-27T05:52:12.547Z,60.75
2018-04-27T05:54:41.620Z,60.21
2018-04-27T05:57:09.878Z,59.27
2018-04-27T05:59:38.138Z,58.68
2018-04-27T06:02:07.191Z,56.92
2018-04-27T06:04:35.456Z,56.72
2018-04-27T06:07:04.486Z,56.44
2018-04-27T06:09:32.819Z,56.21
2018-04-27T06:12:01.107Z,54.62
2018-04-27T06:14:30.135Z,54.44
2018-04-27T06:16:58.621Z,53.40
2018-04-27T06:19:27.668Z,52.93
2018-04-27T06:21:55.937Z,54.26
2018-04-27T06:24:24.238Z,54.79
2018-04-27T06:26:52.514Z,53.78
2018-04-27T06:29:20.775Z,53.50
2018-04-27T06:31:49.862Z,52.41
2018-04-27T06:34:18.088Z,51.14
2018-04-27T06:36:47.100Z,51.75
2018-04-27T06:39:16.135Z,50.58
2018-04-27T06:41:44.389Z,50.56
2018-04-27T06:44:13.417Z,50.33
2018-04-27T06:46:41.687Z,50.56
2018-04-27T06:49:10.708Z,49.34
2018-04-27T06:51:39.041Z,48.70
2018-04-27T06:54:07.223Z,49.40
2018-04-27T06:56:35.480Z,47.68
2018-04-27T06:59:03.741Z,47.47
2018-04-27T07:01:32.026Z,47.63
2018-04-27T07:04:00.309Z,47.96
2018-04-27T07:06:28.563Z,48.15
2018-04-27T07:08:56.836Z,47.11
2018-04-27T07:11:25.088Z,47.08
2018-04-27T07:13:54.115Z,48.66
2018-04-27T07:16:23.148Z,47.70
2018-04-27T07:18:51.417Z,47.41
2018-04-27T07:21:19.671Z,46.79
2018-04-27T07:23:47.960Z,45.91
2018-04-27T07:26:16.277Z,45.00
2018-04-27T07:28:45.291Z,45.45
2018-04-27T07:31:13.592Z,45.46
2018-04-27T07:33:42.596Z,44.00
2018-04-27T07:36:10.848Z,44.39
2018-04-27T07:38:39.108Z,45.09
2018-04-27T07:41:07.378Z,43.11
2018-04-27T07:43:35.623Z,43.28
2018-04-27T07:46:03.895Z,44.05
2018-04-27T07:48:32.168Z,44.79
2018-04-27T07:51:00.444Z,45.83
2018-04-27T07:53:28.732Z,44.62
2018-04-27T07:55:56.993Z,42.48
2018-04-27T07:58:26.012Z,42.97
2018-04-27T08:00:54.296Z,41.64
2018-04-27T08:03:23.328Z,42.05
2018-04-27T08:05:51.598Z,42.06
2018-04-27T08:08:19.869Z,43.27
2018-04-27T08:10:48.905Z,42.87
2018-04-27T08:13:17.174Z,42.13
2018-04-27T08:15:46.210Z,41.37
2018-04-27T08:18:14.476Z,42.31
2018-04-27T08:20:42.753Z,40.83
2018-04-27T08:23:11.812Z,41.14
2018-04-27T08:25:40.412Z,42.33
2018-04-27T08:28:08.699Z,43.43
2018-04-27T08:30:37.004Z,43.48
2018-04-27T08:33:05.263Z,41.71
2018-04-27T08:35:33.517Z,41.40
2018-04-27T08:38:02.570Z,39.73
2018-04-27T08:40:30.873Z,39.83
2018-04-27T08:42:59.132Z,39.52
2018-04-27T08:45:27.424Z,38.40
2018-04-27T08:47:55.737Z,40.20
2018-04-27T08:50:24.087Z,39.92
2018-04-27T08:52:52.289Z,39.63
2018-04-27T08:55:21.394Z,41.37
2018-04-27T08:57:49.661Z,40.47
2018-04-27T09:00:17.938Z,40.98
2018-04-27T09:02:46.242Z,40.76
2018-04-27T09:05:14.464Z,40.34
2018-04-27T09:07:42.741Z,39.84
2018-04-27T09:10:11.760Z,39.67
2018-04-27T09:12:40.034Z,39.30
2018-04-27T09:15:09.082Z,39.65
2018-04-27T09:17:37.342Z,40.66
2018-04-27T09:20:06.396Z,40.64
2018-04-27T09:22:34.651Z,39.90
2018-04-27T09:25:02.914Z,40.13
2018-04-27T09:27:32.048Z,39.56
2018-04-27T09:30:00.342Z,39.21
2018-04-27T09:32:28.735Z,38.72
2018-04-27T09:34:57.019Z,38.97
2018-04-27T09:37:25.271Z,38.68
2018-04-27T09:39:53.528Z,38.64
2018-04-27T09:42:21.808Z,38.24
2018-04-27T09:44:50.076Z,38.27
2018-04-27T09:47:18.332Z,37.96
2018-04-27T09:49:46.583Z,38.77
2018-04-27T09:52:14.852Z,38.55
2018-04-27T09:54:43.120Z,36.99
2018-04-27T09:57:11.401Z,35.92
2018-04-27T09:59:39.663Z,35.37
2018-04-27T10:02:07.987Z,35.93
2018-04-27T10:04:38.242Z,35.63
2018-04-27T10:07:06.517Z,35.75
2018-04-27T10:09:35.560Z,35.26
2018-04-27T10:12:03.832Z,35.03
2018-04-27T10:14:32.131Z,34.81
2018-04-27T10:17:00.420Z,34.35
2018-04-27T10:19:32.181Z,34.80
2018-04-27T10:22:00.441Z,32.96
2018-04-27T10:24:28.713Z,31.82
2018-04-27T10:26:56.985Z,32.48
2018-04-27T10:29:25.236Z,30.80
2018-04-27T10:31:53.513Z,31.78
2018-04-27T10:34:21.809Z,31.06
2018-04-27T10:36:50.841Z,31.70
2018-04-27T10:39:19.092Z,31.85
2018-04-27T10:41:48.144Z,30.52
2018-04-27T10:44:16.393Z,30.09
2018-04-27T10:46:45.493Z,30.07
2018-04-27T10:49:13.784Z,29.77
2018-04-27T10:51:42.072Z,29.54
2018-04-27T10:54:11.095Z,30.23
2018-04-27T10:56:40.164Z,30.47
2018-04-27T10:59:08.425Z,30.64
2018-04-27T11:01:36.689Z,30.29
2018-04-27T11:04:05.716Z,29.24
2018-04-27T11:06:33.996Z,30.28
2018-04-27T11:09:02.299Z,30.30
2018-04-27T11:11:30.568Z,30.84
2018-04-27T11:13:58.852Z,30.03
2018-04-27T11:16:27.880Z,29.73
2018-04-27T11:18:56.172Z,28.93
2018-04-27T11:21:24.428Z,28.82
2018-04-27T11:23:53.443Z,28.44
2018-04-27T11:26:22.480Z,28.47
2018-04-27T11:28:50.902Z,28.81
2018-04-27T11:31:19.239Z,29.08
2018-04-27T11:33:48.260Z,29.06
2018-04-27T11:36:16.512Z,28.06
2018-04-27T11:38:44.767Z,27.56
2018-04-27T11:41:13.059Z,28.47
2018-04-27T11:43:41.276Z,27.65
2018-04-27T11:46:09.536Z,27.04
2018-04-27T11:48:37.799Z,27.46
2018-04-27T11:51:06.083Z,26.95
2018-04-27T11:53:34.349Z,27.23
2018-04-27T11:56:02.670Z,27.89
2018-04-27T11:58:31.003Z,28.62
2018-04-27T12:01:00.070Z,28.41
2018-04-27T12:03:28.348Z,29.55
2018-04-27T12:05:56.623Z,28.45
2018-04-27T12:08:24.877Z,28.99
2018-04-27T12:10:53.163Z,28.52
2018-04-27T12:13:21.414Z,29.05
2018-04-27T12:15:49.652Z,28.99
2018-04-27T12:18:17.950Z,29.59
2018-04-27T12:20:46.215Z,28.92
2018-04-27T12:23:14.472Z,28.94
2018-04-27T12:25:42.739Z,28.90
2018-04-27T12:28:11.808Z,28.97
2018-04-27T12:30:40.091Z,28.89
2018-04-27T12:33:08.367Z,28.80
2018-04-27T12:35:36.644Z,28.27
2018-04-27T12:38:04.923Z,27.98
2018-04-27T12:40:33.187Z,28.34
2018-04-27T12:43:01.483Z,28.54
2018-04-27T12:45:29.748Z,28.65
2018-04-27T12:47:58.066Z,29.21
2018-04-27T12:50:27.114Z,28.98
2018-04-27T12:52:55.379Z,28.47
2018-04-27T12:55:24.408Z,29.12
2018-04-27T12:57:52.711Z,27.34
2018-04-27T13:00:20.987Z,28.50
2018-04-27T13:02:49.272Z,27.94
2018-04-27T13:05:17.518Z,27.20
2018-04-27T13:07:45.777Z,27.78
2018-04-27T13:10:14.044Z,27.89
2018-04-27T13:12:42.291Z,28.08
2018-04-27T13:15:10.556Z,27.70
2018-04-27T13:17:38.878Z,28.85
2018-04-27T13:20:07.127Z,28.47
2018-04-27T13:22:35.625Z,27.27
2018-04-27T13:25:03.948Z,27.24
2018-04-27T13:27:32.229Z,26.49
2018-04-27T13:30:00.497Z,27.28
2018-04-27T13:32:28.779Z,27.65
2018-04-27T13:34:57.039Z,26.54
2018-04-27T13:37:25.299Z,27.67
2018-04-27T13:39:53.604Z,27.54
2018-04-27T13:42:21.821Z,27.76
2018-04-27T13:44:50.071Z,27.73
2018-04-27T13:47:19.104Z,27.11
2018-04-27T13:49:47.387Z,27.66
2018-04-27T13:52:15.676Z,27.04
2018-04-27T13:54:43.946Z,27.12
2018-04-27T13:57:12.964Z,27.03
2018-04-27T13:59:41.976Z,27.78
2018-04-27T14:02:10.996Z,27.82
2018-04-27T14:04:39.271Z,28.01
2018-04-27T14:07:08.293Z,27.64
2018-04-27T14:09:36.876Z,27.86
2018-04-27T14:12:05.874Z,28.20
2018-04-27T14:14:35.008Z,28.22
2018-04-27T14:17:03.289Z,29.37
2018-04-27T14:19:32.317Z,28.64
2018-04-27T14:22:00.593Z,29.00
2018-04-27T14:24:28.876Z,29.55
2018-04-27T14:26:57.931Z,29.68
2018-04-27T14:29:26.209Z,29.50
2018-04-27T14:31:54.509Z,29.78
2018-04-27T14:34:22.763Z,29.99
2018-04-27T14:36:51.030Z,29.67
2018-04-27T14:39:20.088Z,30.04
2018-04-27T14:41:48.616Z,29.94
2018-04-27T14:44:16.871Z,28.79
2018-04-27T14:46:45.137Z,29.78
2018-04-27T14:49:14.349Z,29.61
2018-04-27T14:51:42.675Z,30.09
2018-04-27T14:54:10.950Z,29.86
2018-04-27T14:56:39.236Z,29.93
2018-04-27T14:59:07.486Z,29.78
2018-04-27T15:01:35.770Z,29.69
2018-04-27T15:04:04.022Z,29.33
2018-04-27T15:06:32.352Z,29.90
2018-04-27T15:09:01.493Z,29.31
2018-04-27T15:11:29.759Z,28.74
2018-04-27T15:13:58.792Z,28.96
2018-04-27T15:16:30.123Z,28.81
2018-04-27T15:19:07.126Z,32.60
2018-04-27T15:21:35.445Z,31.70
2018-04-27T15:24:08.729Z,31.31
2018-04-27T15:26:53.288Z,27.60
2018-04-27T15:32:10.308Z,29.50
2018-04-27T15:34:38.550Z,27.14
2018-04-27T15:37:07.588Z,27.00
2018-04-27T15:39:35.861Z,28.08
2018-04-27T15:42:04.869Z,26.68
2018-04-27T15:44:33.116Z,26.55
2018-04-27T15:47:01.424Z,27.08
2018-04-27T15:49:29.691Z,27.16
2018-04-27T15:51:57.953Z,26.49
2018-04-27T15:54:26.222Z,27.04
2018-04-27T15:56:54.471Z,27.25
2018-04-27T15:59:22.719Z,27.32
2018-04-27T16:01:52.792Z,26.85
2018-04-27T16:04:21.067Z,27.52
2018-04-27T16:06:49.311Z,27.79
2018-04-27T16:09:17.604Z,28.12
2018-04-27T16:11:46.599Z,28.54
2018-04-27T16:14:14.855Z,28.39
2018-04-27T16:16:43.136Z,28.64
2018-04-27T16:19:11.473Z,29.04
2018-04-27T16:21:40.493Z,28.89
2018-04-27T16:24:08.757Z,29.17
2018-04-27T16:26:37.890Z,29.42
2018-04-27T16:29:06.175Z,29.53
2018-04-27T16:31:35.267Z,30.03
2018-04-27T16:34:04.300Z,30.01
2018-04-27T16:36:32.571Z,30.05
2018-04-27T16:39:01.612Z,30.50
2018-04-27T16:41:29.873Z,30.67
2018-04-27T16:43:58.892Z,30.87
2018-04-27T16:46:28.144Z,30.62
2018-04-27T16:48:56.425Z,31.04
2018-04-27T16:51:24.707Z,31.09
2018-04-27T16:53:52.959Z,30.98
2018-04-27T16:56:21.980Z,31.05
2018-04-27T16:58:50.244Z,31.25
2018-04-27T17:01:19.276Z,31.45
2018-04-27T17:03:47.653Z,31.50
2018-04-27T17:06:15.850Z,31.65
2018-04-27T17:08:44.891Z,31.96
2018-04-27T17:11:13.143Z,31.92
2018-04-27T17:13:41.437Z,31.71
2018-04-27T17:16:10.451Z,32.01
2018-04-27T17:18:38.719Z,32.18
2018-04-27T17:21:07.747Z,32.16
2018-04-27T17:23:36.048Z,32.10
2018-04-27T17:26:04.328Z,31.81
2018-04-27T17:28:32.681Z,32.38
2018-04-27T17:31:01.670Z,31.76
2018-04-27T17:33:29.967Z,31.67
2018-04-27T17:35:58.236Z,31.77
2018-04-27T17:38:26.554Z,31.93
2018-04-27T17:40:55.625Z,31.87
2018-04-27T17:43:23.890Z,31.99
2018-04-27T17:45:52.919Z,32.32
2018-04-27T17:48:21.223Z,32.21
2018-04-27T17:50:49.475Z,34.58
2018-04-27T17:53:17.774Z,31.58
2018-04-27T17:55:46.133Z,31.68
2018-04-27T17:58:15.073Z,31.58
2018-04-27T18:00:43.340Z,31.60
2018-04-27T19:26:33.940Z,35.66
2018-04-27T19:29:02.237Z,35.65
2018-04-27T19:31:30.515Z,35.95
2018-04-27T19:33:58.817Z,35.95
2018-04-27T19:36:27.096Z,36.13
2018-04-27T19:38:55.504Z,36.24
2018-04-27T19:41:23.781Z,36.58
2018-04-27T19:43:52.202Z,36.80
2018-04-27T19:46:20.491Z,37.06
2018-04-27T19:48:48.757Z,37.68
2018-04-27T19:51:17.030Z,37.79
2018-04-27T19:53:46.108Z,37.73
2018-04-27T19:56:15.231Z,37.90
2018-04-27T19:58:44.259Z,38.15
2018-04-27T20:01:12.564Z,38.49
2018-04-27T20:03:40.807Z,38.42
2018-04-27T20:06:09.954Z,38.75
2018-04-27T20:08:38.349Z,38.54
2018-04-27T20:11:07.649Z,39.14
2018-04-27T20:13:40.659Z,38.83
2018-04-27T20:16:09.039Z,38.85
2018-04-27T20:18:38.059Z,39.15
2018-04-27T20:21:06.453Z,39.50
2018-04-27T20:23:36.379Z,39.54
2018-04-27T20:26:06.564Z,39.83
2018-04-27T20:28:38.206Z,40.08
2018-04-27T20:31:06.619Z,40.61
2018-04-27T20:33:34.936Z,41.02
2018-04-27T20:36:04.694Z,41.14
2018-04-27T20:38:33.790Z,41.59
2018-04-27T20:41:03.539Z,42.02
2018-04-27T20:43:31.903Z,42.56
2018-04-27T20:46:00.182Z,42.16
2018-04-27T20:48:29.221Z,42.38
2018-04-27T20:51:08.780Z,42.16
2018-04-27T20:54:00.530Z,42.24
2018-04-27T20:56:51.910Z,42.35
2018-04-27T20:59:20.188Z,42.34
2018-04-27T21:01:48.448Z,42.76
2018-04-27T21:04:16.725Z,42.72
2018-04-27T21:06:44.990Z,42.97
2018-04-27T21:09:14.047Z,42.67
2018-04-27T21:11:43.054Z,42.84
2018-04-27T21:14:11.381Z,42.82
2018-04-27T21:16:41.311Z,42.96
2018-04-27T21:19:09.582Z,43.04
2018-04-27T21:21:37.861Z,43.16
2018-04-27T21:24:06.222Z,43.43
2018-04-27T21:26:48.495Z,43.35
2018-04-27T21:29:17.569Z,42.90
2018-04-27T21:31:45.893Z,43.31
2018-04-27T21:34:15.672Z,43.34
2018-04-27T21:36:46.133Z,43.80
2018-04-27T21:39:19.066Z,43.70
2018-04-27T21:44:51.715Z,43.90
2018-04-27T21:47:43.509Z,44.13
2018-04-27T21:50:11.776Z,43.95
2018-04-27T21:52:47.651Z,43.98
2018-04-27T21:55:15.897Z,44.15
2018-04-27T22:00:49.297Z,44.51
2018-04-27T22:03:19.080Z,44.37
2018-04-27T22:06:00.843Z,44.66
2018-04-27T22:08:40.469Z,44.68
2018-04-27T22:11:11.093Z,44.81
2018-04-27T22:13:40.125Z,44.78
2018-04-27T22:19:21.652Z,45.04
2018-04-27T22:21:51.699Z,45.01
2018-04-27T22:24:23.863Z,44.49
2018-04-27T22:27:10.463Z,44.57
2018-04-27T22:29:42.759Z,44.52
2018-04-27T22:32:43.488Z,44.59
2018-04-27T22:35:17.165Z,44.71
2018-04-27T22:37:46.165Z,44.75
2018-04-27T22:40:18.831Z,44.91
2018-04-27T22:42:55.441Z,45.00
2018-04-27T22:45:35.600Z,45.43
2018-04-27T22:51:26.599Z,45.55
2018-04-27T22:57:25.443Z,46.18
2018-04-27T23:00:12.544Z,46.03
2018-04-27T23:02:40.825Z,46.38
2018-04-27T23:05:18.135Z,46.49
2018-04-27T23:07:49.616Z,46.62
2018-04-27T23:10:17.887Z,46.41
2018-04-27T23:12:52.482Z,46.31
2018-04-27T23:15:20.830Z,46.25
2018-04-27T23:17:49.110Z,45.92
2018-04-27T23:20:22.927Z,45.64
2018-04-27T23:23:16.899Z,45.59
2018-04-27T23:25:56.388Z,45.36
2018-04-27T23:28:24.662Z,44.63
2018-04-27T23:30:52.931Z,44.47
2018-04-27T23:33:21.990Z,44.50
2018-04-27T23:35:51.028Z,44.83
2018-04-27T23:38:21.090Z,44.97
2018-04-27T23:40:51.239Z,45.18
2018-04-27T23:43:20.975Z,45.33
2018-04-27T23:45:49.227Z,45.32
2018-04-27T23:48:17.551Z,45.51
2018-04-27T23:50:48.279Z,45.90
2018-04-27T23:53:17.411Z,47.19
2018-04-27T23:55:45.667Z,47.32
2018-04-27T23:58:18.379Z,47.36
